createdAt,value
2023-02-24T00:00:55.365Z,5.43
2023-02-24T00:03:28.864Z,5.37
2023-02-24T00:06:05.410Z,5.50
2023-02-24T00:08:39.497Z,5.93
2023-02-24T00:11:13.486Z,6.40
2023-02-24T00:13:47.048Z,5.80
2023-02-24T00:16:20.643Z,6.67
2023-02-24T00:18:53.704Z,6.30
2023-02-24T00:21:26.614Z,5.47
2023-02-24T00:23:59.544Z,5.43
2023-02-24T00:26:32.587Z,5.40
2023-02-24T00:29:10.338Z,5.17
2023-02-24T00:31:43.700Z,4.97
2023-02-24T00:34:16.853Z,5.03
2023-02-24T00:36:49.971Z,5.10
2023-02-24T00:39:33.286Z,5.60
2023-02-24T00:42:08.028Z,5.43
2023-02-24T00:44:44.426Z,5.33
2023-02-24T00:47:17.724Z,4.53
2023-02-24T00:49:51.004Z,7.53
2023-02-24T00:52:27.727Z,6.00
2023-02-24T00:55:00.831Z,5.90
2023-02-24T00:57:35.487Z,4.87
2023-02-24T01:00:16.485Z,5.17
2023-02-24T01:02:49.500Z,6.20
2023-02-24T01:05:22.470Z,5.77
2023-02-24T01:07:55.444Z,5.67
2023-02-24T01:10:28.614Z,5.53
2023-02-24T01:13:01.539Z,5.17
2023-02-24T01:15:34.508Z,5.23
2023-02-24T01:18:11.059Z,6.10
2023-02-24T01:20:44.192Z,5.10
2023-02-24T01:23:17.085Z,5.40
2023-02-24T01:25:53.366Z,5.63
2023-02-24T01:28:27.466Z,4.63
2023-02-24T01:31:05.269Z,5.47
2023-02-24T01:33:39.123Z,4.73
2023-02-24T01:36:23.032Z,5.00
2023-02-24T01:38:55.913Z,5.47
2023-02-24T01:41:30.772Z,6.13
2023-02-24T01:44:11.289Z,4.90
2023-02-24T01:46:45.540Z,5.73
2023-02-24T01:49:33.956Z,5.80
2023-02-24T01:52:06.905Z,5.90
2023-02-24T01:54:45.698Z,5.50
2023-02-24T01:57:20.377Z,5.13
2023-02-24T01:59:54.295Z,5.23
2023-02-24T02:02:27.386Z,5.43
2023-02-24T02:05:05.494Z,5.43
2023-02-24T02:07:40.300Z,5.10
2023-02-24T02:10:15.274Z,5.47
2023-02-24T02:12:51.058Z,6.00
2023-02-24T02:15:24.295Z,5.80
2023-02-24T02:18:16.091Z,5.77
2023-02-24T02:21:03.454Z,5.87
2023-02-24T02:23:46.085Z,7.90
2023-02-24T02:26:28.649Z,5.70
2023-02-24T02:29:04.925Z,5.40
2023-02-24T02:31:56.387Z,5.87
2023-02-24T02:34:35.601Z,5.80
2023-02-24T02:37:16.705Z,5.70
2023-02-24T02:39:59.256Z,5.33
2023-02-24T02:42:38.192Z,5.27
2023-02-24T02:45:18.831Z,6.33
2023-02-24T02:47:55.169Z,5.47
2023-02-24T02:50:32.436Z,5.70
2023-02-24T02:53:11.006Z,5.10
2023-02-24T02:55:53.976Z,5.73
2023-02-24T02:58:30.425Z,6.03
2023-02-24T03:01:07.114Z,5.30
2023-02-24T03:03:46.343Z,5.87
2023-02-24T03:06:25.062Z,6.00
2023-02-24T03:08:58.302Z,5.70
2023-02-24T03:11:32.460Z,5.07
2023-02-24T03:14:06.775Z,5.80
2023-02-24T03:16:42.066Z,5.63
2023-02-24T03:19:17.099Z,6.00
2023-02-24T03:21:52.927Z,5.17
2023-02-24T03:24:27.925Z,5.73
2023-02-24T03:27:12.957Z,5.60
2023-02-24T03:29:49.118Z,6.20
2023-02-24T03:32:25.562Z,5.70
2023-02-24T03:35:06.909Z,5.07
2023-02-24T03:37:41.022Z,5.53
2023-02-24T03:40:14.996Z,5.50
2023-02-24T03:42:51.579Z,6.80
2023-02-24T03:45:27.748Z,6.60
2023-02-24T03:48:03.938Z,6.70
2023-02-24T03:50:37.956Z,6.13
2023-02-24T03:53:30.651Z,6.17
2023-02-24T03:56:18.451Z,5.53
2023-02-24T03:58:52.042Z,5.83
2023-02-24T04:01:30.887Z,6.50
2023-02-24T04:04:24.111Z,6.33
2023-02-24T04:07:18.223Z,5.57
2023-02-24T04:09:53.218Z,6.60
2023-02-24T04:12:30.410Z,6.47
2023-02-24T04:15:13.628Z,6.20
2023-02-24T04:17:49.555Z,5.30
2023-02-24T04:20:24.472Z,5.47
2023-02-24T04:23:09.357Z,6.20
2023-02-24T04:25:45.262Z,6.17
2023-02-24T04:28:21.148Z,5.43
2023-02-24T04:30:57.341Z,5.47
2023-02-24T04:33:30.711Z,4.83
2023-02-24T04:36:04.904Z,6.57
2023-02-24T04:38:42.181Z,5.50
2023-02-24T04:41:21.285Z,5.77
2023-02-24T04:43:54.637Z,5.27
2023-02-24T04:46:27.674Z,6.63
2023-02-24T04:49:02.290Z,5.30
2023-02-24T04:51:36.239Z,5.80
2023-02-24T04:54:09.935Z,6.30
2023-02-24T04:56:42.838Z,5.43
2023-02-24T04:59:15.938Z,5.63
2023-02-24T05:01:52.871Z,5.97
2023-02-24T05:04:26.447Z,7.65
2023-02-24T05:07:00.159Z,5.33
2023-02-24T05:09:33.158Z,6.30
2023-02-24T05:12:06.106Z,5.80
2023-02-24T05:14:39.539Z,5.93
2023-02-24T05:17:16.260Z,5.93
2023-02-24T05:20:07.629Z,6.10
2023-02-24T05:22:40.644Z,5.53
2023-02-24T05:25:14.326Z,6.67
2023-02-24T05:27:47.524Z,6.10
2023-02-24T05:30:21.016Z,6.43
2023-02-24T05:32:54.286Z,5.63
2023-02-24T05:35:27.484Z,5.90
2023-02-24T05:38:00.380Z,8.70
2023-02-24T05:40:33.314Z,6.00
2023-02-24T05:43:06.354Z,6.50
2023-02-24T05:45:39.277Z,6.00
2023-02-24T05:48:15.202Z,5.90
2023-02-24T05:50:57.285Z,5.77
2023-02-24T05:53:30.628Z,5.53
2023-02-24T05:56:07.057Z,6.60
2023-02-24T05:58:39.986Z,5.97
2023-02-24T06:01:19.002Z,5.93
2023-02-24T06:03:54.287Z,5.77
2023-02-24T06:06:28.640Z,6.27
2023-02-24T06:09:07.279Z,6.33
2023-02-24T06:11:41.262Z,5.97
2023-02-24T06:14:15.918Z,5.60
2023-02-24T06:16:48.984Z,5.60
2023-02-24T06:19:21.924Z,5.40
2023-02-24T06:21:55.596Z,5.63
2023-02-24T06:24:29.666Z,6.17
2023-02-24T06:27:09.523Z,7.90
2023-02-24T06:29:42.591Z,6.77
2023-02-24T06:32:15.594Z,6.00
2023-02-24T06:34:48.686Z,6.23
2023-02-24T06:37:22.824Z,7.03
2023-02-24T06:39:58.176Z,6.57
2023-02-24T06:42:31.510Z,7.10
2023-02-24T06:45:07.549Z,7.23
2023-02-24T06:47:42.678Z,7.47
2023-02-24T06:50:23.260Z,7.00
2023-02-24T06:53:00.609Z,7.13
2023-02-24T06:55:35.465Z,7.13
2023-02-24T06:58:16.262Z,7.00
2023-02-24T07:00:58.419Z,7.93
2023-02-24T07:03:40.440Z,8.07
2023-02-24T07:06:23.977Z,7.30
2023-02-24T07:08:58.582Z,7.43
2023-02-24T07:11:32.290Z,7.17
2023-02-24T07:14:08.180Z,6.50
2023-02-24T07:16:45.127Z,8.00
2023-02-24T07:19:18.204Z,7.47
2023-02-24T07:21:52.565Z,7.57
2023-02-24T07:24:25.493Z,7.97
2023-02-24T07:26:59.423Z,8.13
2023-02-24T07:29:33.150Z,7.77
2023-02-24T07:32:08.420Z,7.47
2023-02-24T07:34:42.107Z,8.07
2023-02-24T07:37:15.286Z,7.53
2023-02-24T07:39:48.348Z,10.80
2023-02-24T07:42:22.336Z,7.30
2023-02-24T07:45:00.663Z,8.70
2023-02-24T07:47:35.763Z,7.17
2023-02-24T07:50:13.980Z,7.77
2023-02-24T07:52:47.931Z,10.55
2023-02-24T07:55:21.552Z,8.33
2023-02-24T07:57:54.666Z,8.00
2023-02-24T08:00:28.196Z,8.70
2023-02-24T08:03:01.361Z,7.50
2023-02-24T08:05:34.917Z,7.83
2023-02-24T08:08:07.893Z,7.07
2023-02-24T08:10:41.252Z,7.60
2023-02-24T08:13:15.010Z,7.10
2023-02-24T08:15:56.486Z,7.13
2023-02-24T08:18:29.531Z,6.80
2023-02-24T08:21:04.746Z,7.00
2023-02-24T08:23:44.464Z,7.33
2023-02-24T08:26:19.482Z,6.93
2023-02-24T08:28:52.428Z,6.27
2023-02-24T08:31:25.872Z,6.73
2023-02-24T08:33:59.068Z,6.73
2023-02-24T08:36:32.153Z,6.30
2023-02-24T08:39:05.940Z,6.93
2023-02-24T08:41:44.904Z,6.70
2023-02-24T08:44:20.225Z,6.00
2023-02-24T08:46:54.074Z,5.80
2023-02-24T08:49:28.186Z,6.33
2023-02-24T08:52:07.116Z,5.90
2023-02-24T08:54:47.947Z,5.80
2023-02-24T08:57:25.866Z,6.07
2023-02-24T08:59:58.775Z,5.93
2023-02-24T09:02:37.252Z,7.13
2023-02-24T09:05:14.185Z,6.30
2023-02-24T09:07:54.512Z,5.93
2023-02-24T09:10:28.447Z,5.87
2023-02-24T09:13:08.539Z,6.13
2023-02-24T09:15:44.506Z,8.10
2023-02-24T09:18:18.360Z,6.70
2023-02-24T09:21:15.819Z,6.17
2023-02-24T09:23:48.795Z,6.20
2023-02-24T09:26:21.929Z,6.23
2023-02-24T09:28:57.703Z,6.77
2023-02-24T09:31:40.563Z,6.33
2023-02-24T09:34:18.391Z,6.37
2023-02-24T09:37:02.827Z,6.67
2023-02-24T09:39:55.626Z,6.20
2023-02-24T09:42:36.252Z,6.40
2023-02-24T09:45:13.662Z,7.87
2023-02-24T09:47:56.302Z,6.63
2023-02-24T09:51:03.631Z,6.43
2023-02-24T09:53:49.094Z,6.57
2023-02-24T09:56:30.938Z,6.63
2023-02-24T09:59:25.942Z,6.90
2023-02-24T10:02:17.777Z,6.90
2023-02-24T10:04:55.126Z,6.67
2023-02-24T10:07:38.335Z,7.27
2023-02-24T10:10:20.507Z,8.00
2023-02-24T10:12:58.257Z,8.37
2023-02-24T10:16:06.977Z,7.80
2023-02-24T10:19:00.887Z,6.93
2023-02-24T10:22:00.322Z,7.43
2023-02-24T10:24:47.172Z,8.60
2023-02-24T10:27:25.028Z,7.00
2023-02-24T10:30:24.124Z,13.17
2023-02-24T10:33:01.459Z,6.53
2023-02-24T10:35:40.256Z,6.73
2023-02-24T10:38:14.492Z,8.75
2023-02-24T10:40:56.599Z,7.07
2023-02-24T10:43:31.424Z,6.67
2023-02-24T10:46:16.990Z,5.83
2023-02-24T10:49:00.453Z,5.93
2023-02-24T10:51:38.262Z,5.43
2023-02-24T10:54:36.439Z,6.10
2023-02-24T10:57:37.352Z,4.43
2023-02-24T11:00:51.634Z,3.93
2023-02-24T11:03:42.001Z,3.23
2023-02-24T11:06:40.490Z,4.30
2023-02-24T11:09:29.786Z,3.03
2023-02-24T11:12:33.639Z,3.40
2023-02-24T11:15:34.180Z,3.67
2023-02-24T11:18:08.605Z,3.50
2023-02-24T11:20:49.409Z,4.20
2023-02-24T11:23:25.986Z,4.37
2023-02-24T11:26:04.525Z,3.93
2023-02-24T11:28:55.942Z,3.07
2023-02-24T11:31:48.825Z,3.77
2023-02-24T11:34:25.013Z,4.60
2023-02-24T11:37:07.209Z,3.83
2023-02-24T11:39:50.020Z,3.80
2023-02-24T11:42:38.241Z,3.17
2023-02-24T11:45:27.764Z,3.93
2023-02-24T11:48:05.351Z,5.20
2023-02-24T11:50:46.403Z,4.17
2023-02-24T11:53:23.849Z,4.00
2023-02-24T11:56:00.624Z,8.70
2023-02-24T11:58:38.486Z,4.07
2023-02-24T12:01:16.015Z,3.80
2023-02-24T12:04:01.384Z,4.00
2023-02-24T12:06:40.380Z,3.90
2023-02-24T12:09:19.562Z,3.73
2023-02-24T12:11:55.594Z,3.67
2023-02-24T12:14:38.004Z,4.40
2023-02-24T12:17:29.324Z,4.00
2023-02-24T12:20:05.439Z,3.80
2023-02-24T12:22:45.937Z,4.73
2023-02-24T12:25:21.142Z,3.70
2023-02-24T12:28:03.209Z,4.73
2023-02-24T12:30:48.810Z,3.97
2023-02-24T12:33:43.755Z,4.10
2023-02-24T12:36:36.002Z,4.47
2023-02-24T12:39:13.111Z,4.28
2023-02-24T12:41:53.341Z,4.38
2023-02-24T12:44:32.908Z,4.97
2023-02-24T12:47:05.813Z,4.65
2023-02-24T12:49:44.855Z,4.03
2023-02-24T12:52:24.747Z,4.15
2023-02-24T12:55:14.286Z,4.45
2023-02-24T12:58:05.888Z,4.60
2023-02-24T13:00:51.227Z,4.30
2023-02-24T13:03:24.167Z,5.00
2023-02-24T13:06:00.131Z,4.63
2023-02-24T13:08:40.595Z,4.18
2023-02-24T13:11:15.421Z,4.55
2023-02-24T13:14:07.815Z,4.32
2023-02-24T13:16:41.682Z,4.05
2023-02-24T13:19:26.966Z,4.47
2023-02-24T13:22:19.889Z,4.38
2023-02-24T13:24:55.933Z,4.73
2023-02-24T13:27:30.221Z,4.05
2023-02-24T13:30:07.791Z,4.50
2023-02-24T13:32:42.015Z,4.17
2023-02-24T13:35:18.059Z,3.87
2023-02-24T13:37:51.523Z,4.27
2023-02-24T13:40:28.894Z,4.00
2023-02-24T13:43:04.596Z,4.20
2023-02-24T13:45:45.034Z,3.60
2023-02-24T13:48:30.207Z,3.70
2023-02-24T13:51:14.382Z,4.00
2023-02-24T13:53:50.376Z,3.80
2023-02-24T13:56:23.237Z,4.10
2023-02-24T13:58:58.918Z,3.80
2023-02-24T14:01:33.218Z,3.80
2023-02-24T14:04:13.313Z,4.60
2023-02-24T14:06:51.780Z,3.70
2023-02-24T14:09:32.848Z,3.63
2023-02-24T14:12:09.197Z,3.70
2023-02-24T14:14:43.927Z,3.80
2023-02-24T14:17:28.637Z,4.13
2023-02-24T14:20:06.567Z,4.18
2023-02-24T14:22:55.099Z,4.40
2023-02-24T14:25:30.587Z,2.90
2023-02-24T14:28:03.714Z,2.57
2023-02-24T14:30:40.983Z,2.20
2023-02-24T14:33:22.851Z,2.50
2023-02-24T14:35:55.941Z,2.40
2023-02-24T14:38:37.080Z,2.43
2023-02-24T14:41:22.315Z,2.93
2023-02-24T14:43:56.334Z,2.97
2023-02-24T14:46:29.585Z,2.60
2023-02-24T14:49:02.540Z,2.40
2023-02-24T14:51:36.250Z,2.90
2023-02-24T14:54:12.361Z,2.27
2023-02-24T14:56:45.356Z,2.57
2023-02-24T14:59:28.962Z,2.80
2023-02-24T15:02:03.163Z,2.50
2023-02-24T15:04:39.198Z,2.30
2023-02-24T15:07:19.671Z,2.57
2023-02-24T15:09:53.302Z,2.83
2023-02-24T15:12:26.173Z,2.63
2023-02-24T15:15:07.874Z,3.10
2023-02-24T15:17:41.531Z,2.33
2023-02-24T15:20:31.532Z,2.70
2023-02-24T15:23:04.861Z,2.27
2023-02-24T15:25:46.512Z,2.43
2023-02-24T15:28:32.452Z,2.07
2023-02-24T15:31:16.284Z,2.30
2023-02-24T15:34:03.525Z,2.60
2023-02-24T15:36:36.837Z,8.27
2023-02-24T15:39:16.984Z,4.47
2023-02-24T15:41:50.767Z,3.13
2023-02-24T15:44:23.655Z,2.90
2023-02-24T15:46:57.475Z,2.47
2023-02-24T15:49:30.383Z,2.27
2023-02-24T15:52:05.124Z,2.20
2023-02-24T15:54:39.525Z,2.40
2023-02-24T15:57:16.339Z,2.40
2023-02-24T15:59:49.308Z,1.87
2023-02-24T16:02:23.380Z,2.00
2023-02-24T16:04:56.323Z,2.27
2023-02-24T16:07:31.198Z,2.20
2023-02-24T16:10:04.671Z,1.97
2023-02-24T16:12:42.805Z,2.20
2023-02-24T16:15:19.401Z,1.73
2023-02-24T16:17:53.018Z,2.07
2023-02-24T16:20:35.503Z,2.20
2023-02-24T16:23:08.370Z,2.03
2023-02-24T16:25:44.968Z,1.30
2023-02-24T16:28:19.330Z,2.13
2023-02-24T16:30:52.734Z,1.50
2023-02-24T16:33:26.103Z,1.30
2023-02-24T16:35:59.143Z,1.30
2023-02-24T16:38:32.052Z,1.17
2023-02-24T16:41:05.035Z,1.60
2023-02-24T16:43:37.970Z,1.47
2023-02-24T16:46:14.940Z,1.20
2023-02-24T16:48:48.901Z,1.17
2023-02-24T16:51:22.500Z,1.00
2023-02-24T16:53:55.767Z,1.95
2023-02-24T16:56:28.684Z,1.37
2023-02-24T16:59:01.578Z,1.40
2023-02-24T17:01:34.626Z,1.30
2023-02-24T17:04:09.769Z,0.90
2023-02-24T17:06:42.845Z,0.90
2023-02-24T17:09:15.845Z,0.83
2023-02-24T17:11:49.022Z,1.33
2023-02-24T17:14:21.958Z,0.70
2023-02-24T17:16:54.966Z,1.10
2023-02-24T17:19:27.860Z,0.97
2023-02-24T17:22:00.785Z,1.10
2023-02-24T17:24:33.837Z,1.10
2023-02-24T17:27:07.776Z,0.90
2023-02-24T17:29:40.805Z,1.30
2023-02-24T17:32:13.982Z,1.00
2023-02-24T17:34:46.968Z,1.10
2023-02-24T17:37:20.822Z,1.10
2023-02-24T17:39:53.702Z,0.90
2023-02-24T17:42:26.706Z,1.20
2023-02-24T17:44:59.919Z,1.00
2023-02-24T17:47:34.336Z,1.00
2023-02-24T17:50:07.561Z,1.10
2023-02-24T17:52:41.267Z,1.27
2023-02-24T17:55:14.172Z,1.17
2023-02-24T17:57:47.102Z,1.10
2023-02-24T18:00:20.087Z,1.37
2023-02-24T18:02:53.786Z,1.40
2023-02-24T18:05:26.849Z,1.33
2023-02-24T18:07:59.836Z,1.10
2023-02-24T18:10:33.324Z,1.30
2023-02-24T18:13:06.273Z,1.37
2023-02-24T18:15:39.674Z,1.57
2023-02-24T18:18:12.636Z,1.67
2023-02-24T18:20:45.735Z,1.70
2023-02-24T18:23:18.810Z,1.33
2023-02-24T18:25:51.696Z,1.67
2023-02-24T18:28:24.566Z,1.20
2023-02-24T18:30:57.970Z,1.80
2023-02-24T18:33:31.094Z,1.53
2023-02-24T18:36:04.122Z,1.40
2023-02-24T18:38:37.037Z,1.20
2023-02-24T18:41:11.895Z,1.17
2023-02-24T18:43:47.558Z,1.17
2023-02-24T18:46:21.464Z,1.10
2023-02-24T18:48:55.937Z,1.20
2023-02-24T18:51:29.004Z,1.00
2023-02-24T18:54:02.088Z,1.17
2023-02-24T18:56:35.735Z,1.20
2023-02-24T18:59:08.715Z,1.30
2023-02-24T19:01:41.638Z,1.30
2023-02-24T19:04:16.252Z,1.77
2023-02-24T19:06:49.265Z,3.43
2023-02-24T19:09:22.592Z,1.70
2023-02-24T19:11:55.591Z,1.20
2023-02-24T19:14:28.566Z,1.23
2023-02-24T19:17:01.875Z,1.30
2023-02-24T19:19:34.834Z,2.17
2023-02-24T19:22:07.779Z,3.97
2023-02-24T19:24:40.682Z,1.40
2023-02-24T19:27:14.771Z,1.83
2023-02-24T19:29:48.218Z,2.13
2023-02-24T19:32:21.639Z,1.70
2023-02-24T19:34:57.631Z,1.93
2023-02-24T19:37:30.699Z,1.90
2023-02-24T19:40:03.712Z,2.07
2023-02-24T19:42:36.638Z,2.70
2023-02-24T19:45:09.836Z,2.40
2023-02-24T19:47:44.007Z,2.30
2023-02-24T19:50:17.220Z,2.40
2023-02-24T19:52:50.112Z,2.67
2023-02-24T19:55:23.060Z,2.30
2023-02-24T19:57:56.178Z,2.60
2023-02-24T20:00:29.136Z,2.40
2023-02-24T20:03:02.136Z,2.67
2023-02-24T20:05:36.386Z,2.40
2023-02-24T20:08:09.288Z,2.73
2023-02-24T20:10:42.170Z,2.80
2023-02-24T20:13:15.075Z,3.33
2023-02-24T20:15:47.975Z,2.70
2023-02-24T20:18:20.879Z,3.10
2023-02-24T20:20:57.503Z,2.70
2023-02-24T20:23:31.968Z,2.80
2023-02-24T20:26:05.278Z,2.50
2023-02-24T20:28:38.321Z,3.20
2023-02-24T20:31:13.170Z,3.40
2023-02-24T20:33:46.774Z,3.85
2023-02-24T20:36:24.195Z,3.50
2023-02-24T20:38:58.704Z,3.50
2023-02-24T20:41:31.646Z,3.20
2023-02-24T20:44:04.721Z,3.53
2023-02-24T20:46:38.289Z,3.80
2023-02-24T20:49:12.657Z,3.67
2023-02-24T20:51:45.566Z,4.23
2023-02-24T20:54:18.454Z,3.60
2023-02-24T20:56:51.385Z,3.67
2023-02-24T20:59:24.300Z,3.70
2023-02-24T21:01:57.202Z,4.17
2023-02-24T21:04:30.175Z,4.00
2023-02-24T21:07:03.123Z,3.60
2023-02-24T21:09:37.028Z,4.30
2023-02-24T21:12:10.027Z,4.00
2023-02-24T21:14:43.425Z,4.23
2023-02-24T21:17:16.819Z,4.50
2023-02-24T21:19:49.827Z,4.37
2023-02-24T21:22:22.789Z,4.23
2023-02-24T21:24:55.682Z,3.67
2023-02-24T21:27:28.619Z,3.57
2023-02-24T21:30:01.542Z,3.93
2023-02-24T21:32:34.706Z,3.53
2023-02-24T21:35:08.219Z,3.73
2023-02-24T21:37:41.171Z,3.70
2023-02-24T21:40:17.472Z,3.33
2023-02-24T21:42:50.437Z,3.70
2023-02-24T21:45:23.366Z,3.47
2023-02-24T21:47:56.660Z,3.23
2023-02-24T21:50:29.576Z,3.33
2023-02-24T21:53:02.473Z,2.43
2023-02-24T21:55:38.442Z,2.50
2023-02-24T21:58:11.360Z,3.53
2023-02-24T22:00:44.251Z,2.37
2023-02-24T22:03:17.406Z,2.43
2023-02-24T22:05:52.563Z,2.07
2023-02-24T22:08:25.527Z,2.40
2023-02-24T22:11:01.799Z,2.42
2023-02-24T22:13:34.737Z,1.80
2023-02-24T22:16:08.411Z,2.00
2023-02-24T22:18:41.677Z,2.10
2023-02-24T22:21:18.743Z,1.80
2023-02-24T22:23:52.908Z,1.70
2023-02-24T22:26:26.630Z,1.70
2023-02-24T22:28:59.941Z,2.00
2023-02-24T22:31:33.836Z,1.77
2023-02-24T22:34:08.538Z,1.60
2023-02-24T22:36:41.558Z,1.70
2023-02-24T22:39:16.449Z,2.07
2023-02-24T22:41:52.146Z,1.90
2023-02-24T22:44:25.198Z,1.90
2023-02-24T22:46:58.284Z,1.60
2023-02-24T22:49:31.207Z,1.67
2023-02-24T22:52:04.283Z,1.47
2023-02-24T22:54:37.149Z,1.53
2023-02-24T22:57:10.282Z,1.70
2023-02-24T22:59:43.194Z,1.43
2023-02-24T23:02:16.082Z,1.60
2023-02-24T23:04:48.994Z,1.50
2023-02-24T23:07:22.071Z,1.37
2023-02-24T23:09:55.066Z,1.47
2023-02-24T23:12:27.945Z,1.50
2023-02-24T23:15:00.903Z,1.27
2023-02-24T23:17:34.449Z,1.33
2023-02-24T23:20:13.698Z,1.20
2023-02-24T23:22:48.710Z,1.20
2023-02-24T23:25:23.026Z,1.10
2023-02-24T23:27:56.099Z,1.10
2023-02-24T23:30:29.054Z,1.20
2023-02-24T23:33:02.973Z,1.45
2023-02-24T23:35:35.905Z,1.07
2023-02-24T23:38:09.710Z,1.30
2023-02-24T23:40:51.163Z,1.10
2023-02-24T23:43:24.101Z,1.47
2023-02-24T23:45:57.027Z,1.40
2023-02-24T23:48:29.956Z,1.27
2023-02-24T23:51:03.726Z,1.10
2023-02-24T23:53:43.447Z,1.57
2023-02-24T23:56:16.368Z,1.20
2023-02-24T23:58:53.516Z,1.17
